Time;durP1;ratioP1;P1;durP2;ratioP2;P2;SDS_P1;SDS_P2;PMS_P1;PMS_P2;Temp;Humidity;BMP_temperature;BMP_pressure;BME280_temperature;BME280_humidity;BME280_pressure;Samples;Min_cycle;Max_cycle;Signal;HPM_P1;HPM_P2
2024/03/21 00:00:10;;;;;;;;;;;;;;;;;;1048366;28;19913;-77
2024/03/21 00:00:40;;;;;;;;;;;;;;;;;;1047400;28;20271;-76
2024/03/21 00:01:10;;;;;;;;;;;;;;;;;;1048110;28;19915;-76
2024/03/21 00:01:40;;;;;;;;;;;;;;;;;;1048388;28;20280;-75
2024/03/21 00:02:11;;;;;;;;;;;;;;;;;;1053092;28;19937;-76
2024/03/21 00:02:41;;;;;;;;;;;;;;;;;;1048572;28;19985;-75
2024/03/21 00:03:11;;;;;;;;;;;;;;;;;;1048597;28;19915;-76
2024/03/21 00:03:42;;;;;;;;;;;;;;;;;;1048747;28;20011;-76
2024/03/21 00:04:12;;;;;;;;;;;;;;;;;;1048478;28;19919;-76
2024/03/21 00:04:42;;;;;;;;;;;;;;;;;;1048696;28;19915;-76
2024/03/21 00:05:12;;;;;;;;;;;;;;;;;;1045260;28;19908;-76
2024/03/21 00:05:43;;;;;;;;;;;;;;;;;;1046642;28;19916;-76
2024/03/21 00:06:14;;;;;;;;;;;;;;;;;;1042513;28;20324;-76
2024/03/21 00:06:45;;;;;;;;;;;;;;;;;;1042324;28;19984;-76
2024/03/21 00:07:15;;;;;;;;;;;;;;;;;;1048365;28;20019;-76
2024/03/21 00:07:48;;;;;;;;;;;;;;;;;;1048900;28;19912;-76
2024/03/21 00:08:19;;;;;;;;;;;;;;;;;;1044936;28;19909;-76
2024/03/21 00:08:49;;;;;;;;;;;;;;;;;;1045292;28;19932;-76
2024/03/21 00:09:20;;;;;;;;;;;;;;;;;;1044647;28;19913;-77
2024/03/21 00:09:50;;;;;;;;;;;;;;;;;;1044757;28;20362;-75
2024/03/21 00:10:21;;;;;;;;;;;;;;;;;;1044668;28;19916;-76
2024/03/21 00:10:51;;;;;;;;;;;;;;;;;;1046970;28;19979;-76
2024/03/21 00:11:21;;;;;;;;;;;;;;;;;;1048811;28;19908;-77
2024/03/21 00:11:52;;;;;;;;;;;;;;;;;;1044633;28;20003;-76
2024/03/21 00:12:24;;;;;;;;;;;;;;;;;;1044665;28;20466;-75
2024/03/21 00:12:54;;;;;;;;;;;;;;;;;;1043457;28;19988;-76
2024/03/21 00:13:24;;;;;;;;;;;;;;;;;;1042619;28;20483;-76
2024/03/21 00:13:55;;;;;;;;;;;;;;;;;;1045072;28;19966;-76
2024/03/21 00:14:25;;;;;;;;;;;;;;;;;;1048836;28;19997;-76
2024/03/21 00:14:55;;;;;;;;;;;;;;;;;;1048211;28;19913;-75
2024/03/21 00:15:25;;;;;;;;;;;;;;;;;;1052929;28;19942;-76
2024/03/21 00:15:56;;;;;;;;;;;;;;;;;;1048920;28;20010;-76
2024/03/21 00:16:26;;;;;;;;;;;;;;;;;;1048341;28;19998;-76
2024/03/21 00:16:56;;;;;;;;;;;;;;;;;;1048503;28;19908;-76
2024/03/21 00:17:27;;;;;;;;;;;;;;;;;;1048503;28;19908;-76
2024/03/21 00:17:57;;;;;;;;;;;;;;;;;;1049014;28;20411;-76
2024/03/21 00:18:27;;;;;;;;;;;;;;;;;;1046247;28;20304;-75
2024/03/21 00:18:57;;;;;;;;;;;;;;;;;;1042600;28;19952;-75
2024/03/21 00:19:28;;;;;;;;;;;;;;;;;;1040074;28;20068;-76
2024/03/21 00:19:59;;;;;;;;;;;;;;;;;;1040794;28;19915;-76
2024/03/21 00:20:29;;;;;;;;;;;;;;;;;;1044566;28;20003;-76
2024/03/21 00:20:59;;;;;;;;;;;;;;;;;;1048748;28;19909;-76
2024/03/21 00:21:30;;;;;;;;;;;;;;;;;;1045683;28;19915;-75
2024/03/21 00:22:00;;;;;;;;;;;;;;;;;;1048783;28;19999;-76
2024/03/21 00:22:30;;;;;;;;;;;;;;;;;;1048349;28;19912;-76
2024/03/21 00:23:01;;;;;;;;;;;;;;;;;;1048942;28;20385;-75
2024/03/21 00:23:31;;;;;;;;;;;;;;;;;;1041887;28;19908;-75
2024/03/21 00:24:01;;;;;;;;;;;;;;;;;;1040317;28;19963;-76
2024/03/21 00:24:32;;;;;;;;;;;;;;;;;;1042070;28;19919;-76
2024/03/21 00:25:02;;;;;;;;;;;;;;;;;;1041023;28;19909;-76
2024/03/21 00:25:33;;;;;;;;;;;;;;;;;;1047935;28;20288;-76
2024/03/21 00:26:05;;;;;;;;;;;;;;;;;;1044725;28;20311;-76
2024/03/21 00:26:35;;;;;;;;;;;;;;;;;;1046695;28;19944;-76
2024/03/21 00:27:05;;;;;;;;;;;;;;;;;;1048515;28;19908;-75
2024/03/21 00:27:35;;;;;;;;;;;;;;;;;;1048927;28;19915;-76
2024/03/21 00:28:06;;;;;;;;;;;;;;;;;;1042084;28;19958;-76
2024/03/21 00:28:36;;;;;;;;;;;;;;;;;;1042224;28;19916;-76
2024/03/21 00:29:07;;;;;;;;;;;;;;;;;;1043260;28;19909;-76
2024/03/21 00:29:38;;;;;;;;;;;;;;;;;;1037950;28;19912;-76
2024/03/21 00:30:09;;;;;;;;;;;;;;;;;;1044328;28;19908;-76
2024/03/21 00:30:41;;;;;;;;;;;;;;;;;;1044999;28;20372;-76
2024/03/21 00:31:11;;;;;;;;;;;;;;;;;;1042828;28;19909;-76
2024/03/21 00:31:42;;;;;;;;;;;;;;;;;;1042525;28;19912;-76
2024/03/21 00:32:12;;;;;;;;;;;;;;;;;;1042464;28;19912;-76
2024/03/21 00:32:42;;;;;;;;;;;;;;;;;;1043212;28;20003;-75
2024/03/21 00:33:12;;;;;;;;;;;;;;;;;;1047978;28;19994;-75
2024/03/21 00:33:47;;;;;;;;;;;;;;;;;;1044227;28;19908;-75
2024/03/21 00:34:17;;;;;;;;;;;;;;;;;;1044344;28;19956;-75
2024/03/21 00:34:48;;;;;;;;;;;;;;;;;;1041001;28;19931;-76
2024/03/21 00:35:18;;;;;;;;;;;;;;;;;;1044891;28;19919;-76
2024/03/21 00:35:48;;;;;;;;;;;;;;;;;;1048658;28;19908;-76
2024/03/21 00:36:19;;;;;;;;;;;;;;;;;;1043853;28;19910;-76
2024/03/21 00:36:49;;;;;;;;;;;;;;;;;;1043105;28;20407;-76
2024/03/21 00:37:19;;;;;;;;;;;;;;;;;;1048761;28;20007;-76
2024/03/21 00:37:49;;;;;;;;;;;;;;;;;;1048456;28;19908;-76
2024/03/21 00:38:20;;;;;;;;;;;;;;;;;;1048440;28;19974;-76
2024/03/21 00:38:50;;;;;;;;;;;;;;;;;;1048866;28;20406;-76
2024/03/21 00:39:20;;;;;;;;;;;;;;;;;;1048497;28;19908;-76
2024/03/21 00:39:53;;;;;;;;;;;;;;;;;;1044964;28;19931;-76
2024/03/21 00:40:24;;;;;;;;;;;;;;;;;;1044422;28;19935;-76
2024/03/21 00:40:54;;;;;;;;;;;;;;;;;;1048586;28;20419;-76
2024/03/21 00:41:24;;;;;;;;;;;;;;;;;;1047934;28;19908;-77
2024/03/21 00:41:54;;;;;;;;;;;;;;;;;;1048549;28;19915;-76
2024/03/21 00:42:25;;;;;;;;;;;;;;;;;;1048320;28;19934;-76
2024/03/21 00:42:55;;;;;;;;;;;;;;;;;;1048130;28;19939;-76
2024/03/21 00:43:25;;;;;;;;;;;;;;;;;;1049249;28;19943;-76
2024/03/21 00:43:56;;;;;;;;;;;;;;;;;;1049721;28;20384;-76
2024/03/21 00:44:26;;;;;;;;;;;;;;;;;;1052521;28;19915;-76
2024/03/21 00:44:56;;;;;;;;;;;;;;;;;;1053153;28;19908;-76
2024/03/21 00:45:27;;;;;;;;;;;;;;;;;;1048290;28;19919;-76
2024/03/21 00:45:57;;;;;;;;;;;;;;;;;;1048369;28;20017;-76
2024/03/21 00:46:28;;;;;;;;;;;;;;;;;;1047172;28;20332;-76
2024/03/21 00:46:58;;;;;;;;;;;;;;;;;;1048371;28;20330;-76
2024/03/21 00:47:28;;;;;;;;;;;;;;;;;;1048323;28;20007;-76
2024/03/21 00:48:02;;;;;;;;;;;;;;;;;;1048740;28;19948;-76
2024/03/21 00:48:32;;;;;;;;;;;;;;;;;;1046618;28;19909;-76
2024/03/21 00:49:03;;;;;;;;;;;;;;;;;;1048770;28;20371;-76
2024/03/21 00:49:33;;;;;;;;;;;;;;;;;;1049092;28;19909;-76
2024/03/21 00:50:04;;;;;;;;;;;;;;;;;;1049303;28;19938;-76
2024/03/21 00:50:34;;;;;;;;;;;;;;;;;;1048291;28;19908;-76
2024/03/21 00:51:04;;;;;;;;;;;;;;;;;;1048456;28;19931;-76
2024/03/21 00:51:35;;;;;;;;;;;;;;;;;;1046611;28;19915;-76
2024/03/21 00:52:05;;;;;;;;;;;;;;;;;;1053044;28;20260;-76
2024/03/21 00:52:35;;;;;;;;;;;;;;;;;;1048535;28;19951;-76
2024/03/21 00:53:06;;;;;;;;;;;;;;;;;;1048610;28;20042;-76
2024/03/21 00:53:36;;;;;;;;;;;;;;;;;;1048580;28;19908;-76
2024/03/21 00:54:06;;;;;;;;;;;;;;;;;;1048137;28;19908;-76
2024/03/21 00:54:36;;;;;;;;;;;;;;;;;;1048385;28;20004;-76
2024/03/21 00:55:07;;;;;;;;;;;;;;;;;;1041996;28;19913;-76
2024/03/21 00:55:37;;;;;;;;;;;;;;;;;;1042434;28;19909;-76
2024/03/21 00:56:07;;;;;;;;;;;;;;;;;;1042637;28;19944;-76
2024/03/21 00:56:38;;;;;;;;;;;;;;;;;;1042208;28;19963;-76
2024/03/21 00:57:09;;;;;;;;;;;;;;;;;;1048690;28;19908;-76
2024/03/21 00:57:39;;;;;;;;;;;;;;;;;;1052804;28;19954;-76
2024/03/21 00:58:09;;;;;;;;;;;;;;;;;;1048225;28;20379;-76
2024/03/21 00:58:40;;;;;;;;;;;;;;;;;;1048581;28;19908;-76
2024/03/21 00:59:10;;;;;;;;;;;;;;;;;;1048134;28;20341;-76
2024/03/21 00:59:45;;;;;;;;;;;;;;;;;;1042145;28;19992;-76
2024/03/21 01:00:15;;;;;;;;;;;;;;;;;;1041575;28;19912;-76
2024/03/21 01:00:46;;;;;;;;;;;;;;;;;;1042053;28;19909;-76
2024/03/21 01:01:16;;;;;;;;;;;;;;;;;;1039623;28;20297;-76
2024/03/21 01:01:46;;;;;;;;;;;;;;;;;;1044648;28;19909;-76
2024/03/21 01:02:17;;;;;;;;;;;;;;;;;;1038219;28;19916;-76
2024/03/21 01:02:47;;;;;;;;;;;;;;;;;;1042128;28;20369;-76
2024/03/21 01:03:17;;;;;;;;;;;;;;;;;;1046573;28;19930;-76
2024/03/21 01:03:48;;;;;;;;;;;;;;;;;;1047177;28;19913;-76
2024/03/21 01:04:18;;;;;;;;;;;;;;;;;;1048783;28;19908;-76
2024/03/21 01:04:50;;;;;;;;;;;;;;;;;;1048761;28;19908;-76
2024/03/21 01:05:20;;;;;;;;;;;;;;;;;;1048680;28;19916;-76
2024/03/21 01:05:51;;;;;;;;;;;;;;;;;;1048736;28;19915;-76
2024/03/21 01:06:21;;;;;;;;;;;;;;;;;;1047157;28;19994;-76
2024/03/21 01:06:51;;;;;;;;;;;;;;;;;;1047456;28;19908;-76
2024/03/21 01:07:22;;;;;;;;;;;;;;;;;;1044125;28;19913;-76
2024/03/21 01:07:52;;;;;;;;;;;;;;;;;;1048817;28;19912;-76
2024/03/21 01:08:23;;;;;;;;;;;;;;;;;;1048194;28;19940;-76
2024/03/21 01:08:53;;;;;;;;;;;;;;;;;;1048466;28;19908;-76
2024/03/21 01:09:24;;;;;;;;;;;;;;;;;;1048844;28;19908;-76
2024/03/21 01:09:55;;;;;;;;;;;;;;;;;;1050356;28;20014;-75
2024/03/21 01:10:25;;;;;;;;;;;;;;;;;;1049015;28;20018;-75
2024/03/21 01:10:55;;;;;;;;;;;;;;;;;;1048840;28;19966;-75
2024/03/21 01:11:26;;;;;;;;;;;;;;;;;;1048263;28;19914;-76
2024/03/21 01:11:58;;;;;;;;;;;;;;;;;;1047231;28;19912;-76
2024/03/21 01:12:28;;;;;;;;;;;;;;;;;;1048360;28;19905;-75
2024/03/21 01:12:59;;;;;;;;;;;;;;;;;;1042920;28;20637;-76
2024/03/21 01:13:29;;;;;;;;;;;;;;;;;;1047159;28;19908;-76
2024/03/21 01:14:00;;;;;;;;;;;;;;;;;;1048605;28;20459;-76
2024/03/21 01:14:30;;;;;;;;;;;;;;;;;;1042040;28;19925;-76
2024/03/21 01:15:01;;;;;;;;;;;;;;;;;;1042071;28;19930;-76
2024/03/21 01:15:31;;;;;;;;;;;;;;;;;;1042501;28;19912;-75
2024/03/21 01:16:02;;;;;;;;;;;;;;;;;;1040153;28;20280;-75
2024/03/21 01:16:32;;;;;;;;;;;;;;;;;;1042520;28;20417;-75
2024/03/21 01:17:03;;;;;;;;;;;;;;;;;;1047832;28;19915;-76
2024/03/21 01:17:33;;;;;;;;;;;;;;;;;;1044298;28;19913;-76
2024/03/21 01:18:06;;;;;;;;;;;;;;;;;;1048383;28;19908;-76
2024/03/21 01:18:37;;;;;;;;;;;;;;;;;;1048551;28;20471;-76
2024/03/21 01:19:07;;;;;;;;;;;;;;;;;;1048370;28;19909;-76
2024/03/21 01:19:39;;;;;;;;;;;;;;;;;;1048879;28;19908;-76
2024/03/21 01:20:09;;;;;;;;;;;;;;;;;;1052494;28;19915;-76
2024/03/21 01:20:40;;;;;;;;;;;;;;;;;;1053025;28;19908;-76
2024/03/21 01:21:10;;;;;;;;;;;;;;;;;;1048084;28;19912;-76
2024/03/21 01:21:41;;;;;;;;;;;;;;;;;;1047136;28;19909;-76
2024/03/21 01:22:11;;;;;;;;;;;;;;;;;;1048229;28;19908;-76
2024/03/21 01:22:42;;;;;;;;;;;;;;;;;;1046134;28;19912;-76
2024/03/21 01:23:12;;;;;;;;;;;;;;;;;;1048027;28;19918;-76
2024/03/21 01:23:42;;;;;;;;;;;;;;;;;;1048656;28;19908;-76
2024/03/21 01:24:13;;;;;;;;;;;;;;;;;;1044464;28;19972;-76
2024/03/21 01:24:43;;;;;;;;;;;;;;;;;;1043291;28;20011;-76
2024/03/21 01:25:14;;;;;;;;;;;;;;;;;;1044293;28;20003;-76
2024/03/21 01:25:45;;;;;;;;;;;;;;;;;;1046592;28;19991;-76
2024/03/21 01:26:15;;;;;;;;;;;;;;;;;;1052573;28;21136;-76
2024/03/21 01:26:45;;;;;;;;;;;;;;;;;;1052388;28;20019;-76
2024/03/21 01:27:16;;;;;;;;;;;;;;;;;;1052897;28;19914;-76
2024/03/21 01:27:46;;;;;;;;;;;;;;;;;;1052671;28;19947;-75
2024/03/21 01:28:16;;;;;;;;;;;;;;;;;;1048582;28;19915;-75
2024/03/21 01:28:46;;;;;;;;;;;;;;;;;;1048801;28;19915;-75
2024/03/21 01:29:17;;;;;;;;;;;;;;;;;;1047188;28;19909;-76
2024/03/21 01:29:47;;;;;;;;;;;;;;;;;;1047799;28;19915;-76
2024/03/21 01:30:17;;;;;;;;;;;;;;;;;;1042582;28;20292;-76
2024/03/21 01:30:48;;;;;;;;;;;;;;;;;;1041682;28;20412;-76
2024/03/21 01:31:20;;;;;;;;;;;;;;;;;;1038540;28;20015;-76
2024/03/21 01:31:51;;;;;;;;;;;;;;;;;;1037630;28;19985;-76
2024/03/21 01:32:21;;;;;;;;;;;;;;;;;;1044751;28;19908;-76
2024/03/21 01:32:51;;;;;;;;;;;;;;;;;;1044680;28;20380;-76
2024/03/21 01:33:22;;;;;;;;;;;;;;;;;;1044489;28;19936;-76
2024/03/21 01:33:52;;;;;;;;;;;;;;;;;;1048564;28;19908;-76
2024/03/21 01:34:23;;;;;;;;;;;;;;;;;;1048244;28;19917;-76
2024/03/21 01:34:53;;;;;;;;;;;;;;;;;;1048712;28;20483;-76
2024/03/21 01:35:24;;;;;;;;;;;;;;;;;;1048260;28;19912;-75
2024/03/21 01:35:55;;;;;;;;;;;;;;;;;;1048590;28;20003;-76
2024/03/21 01:36:25;;;;;;;;;;;;;;;;;;1047911;28;19959;-76
2024/03/21 01:36:57;;;;;;;;;;;;;;;;;;1048475;28;19920;-76
2024/03/21 01:37:27;;;;;;;;;;;;;;;;;;1048828;28;19978;-75
2024/03/21 01:37:57;;;;;;;;;;;;;;;;;;1049530;28;19943;-76
2024/03/21 01:38:28;;;;;;;;;;;;;;;;;;1053117;28;20283;-76
2024/03/21 01:38:58;;;;;;;;;;;;;;;;;;1052888;28;20360;-76
2024/03/21 01:39:28;;;;;;;;;;;;;;;;;;1047908;28;20520;-76
2024/03/21 01:40:06;;;;;;;;;;;;;;;;;;1048266;28;19913;-75
2024/03/21 01:40:37;;;;;;;;;;;;;;;;;;1048460;28;19995;-76
2024/03/21 01:41:07;;;;;;;;;;;;;;;;;;1048223;28;19973;-76
2024/03/21 01:41:37;;;;;;;;;;;;;;;;;;1046668;28;19962;-76
2024/03/21 01:42:08;;;;;;;;;;;;;;;;;;1048651;28;19938;-75
2024/03/21 01:42:39;;;;;;;;;;;;;;;;;;1048677;28;19916;-75
2024/03/21 01:43:09;;;;;;;;;;;;;;;;;;1052564;28;19908;-75
2024/03/21 01:43:39;;;;;;;;;;;;;;;;;;1052804;28;19915;-75
2024/03/21 01:44:10;;;;;;;;;;;;;;;;;;1052850;28;19908;-76
2024/03/21 01:44:40;;;;;;;;;;;;;;;;;;1053178;28;19923;-76
2024/03/21 01:45:10;;;;;;;;;;;;;;;;;;1048050;28;19970;-76
2024/03/21 01:45:41;;;;;;;;;;;;;;;;;;1048958;28;20395;-76
2024/03/21 01:46:11;;;;;;;;;;;;;;;;;;1048259;28;19964;-76
2024/03/21 01:46:41;;;;;;;;;;;;;;;;;;1048593;28;19913;-76
2024/03/21 01:47:12;;;;;;;;;;;;;;;;;;1048301;28;19912;-76
2024/03/21 01:47:42;;;;;;;;;;;;;;;;;;1040102;28;20287;-76
2024/03/21 01:48:13;;;;;;;;;;;;;;;;;;1042134;28;19908;-76
2024/03/21 01:48:43;;;;;;;;;;;;;;;;;;1042089;28;19972;-76
2024/03/21 01:49:13;;;;;;;;;;;;;;;;;;1039147;28;20007;-76
2024/03/21 01:49:44;;;;;;;;;;;;;;;;;;1039851;28;19916;-76
2024/03/21 01:50:14;;;;;;;;;;;;;;;;;;1040133;28;19909;-76
2024/03/21 01:50:44;;;;;;;;;;;;;;;;;;1041840;28;19909;-76
2024/03/21 01:51:17;;;;;;;;;;;;;;;;;;1042183;28;20004;-76
2024/03/21 01:51:47;;;;;;;;;;;;;;;;;;1046869;28;19915;-76
2024/03/21 01:52:17;;;;;;;;;;;;;;;;;;1048334;28;20003;-76
2024/03/21 01:52:47;;;;;;;;;;;;;;;;;;1048553;28;20007;-76
2024/03/21 01:53:18;;;;;;;;;;;;;;;;;;1052691;28;19914;-75
2024/03/21 01:53:48;;;;;;;;;;;;;;;;;;1052935;28;19971;-76
2024/03/21 01:54:18;;;;;;;;;;;;;;;;;;1052820;28;20302;-76
2024/03/21 01:54:48;;;;;;;;;;;;;;;;;;1053764;28;19916;-76
2024/03/21 01:55:19;;;;;;;;;;;;;;;;;;1048515;28;19908;-76
2024/03/21 01:55:49;;;;;;;;;;;;;;;;;;1048589;28;19908;-76
2024/03/21 01:56:20;;;;;;;;;;;;;;;;;;1048521;28;19957;-75
2024/03/21 01:56:50;;;;;;;;;;;;;;;;;;1048400;28;19973;-75
2024/03/21 01:57:20;;;;;;;;;;;;;;;;;;1048111;28;20330;-75
2024/03/21 01:57:50;;;;;;;;;;;;;;;;;;1048942;28;19966;-76
2024/03/21 01:58:21;;;;;;;;;;;;;;;;;;1047771;28;19913;-76
2024/03/21 01:58:51;;;;;;;;;;;;;;;;;;1048498;28;19909;-75
2024/03/21 01:59:22;;;;;;;;;;;;;;;;;;1048500;28;19912;-75
2024/03/21 01:59:56;;;;;;;;;;;;;;;;;;1048759;28;19916;-75
2024/03/21 02:00:26;;;;;;;;;;;;;;;;;;1044952;28;20007;-75
2024/03/21 02:00:57;;;;;;;;;;;;;;;;;;1048784;28;19978;-76
2024/03/21 02:01:27;;;;;;;;;;;;;;;;;;1048656;28;19955;-76
2024/03/21 02:01:58;;;;;;;;;;;;;;;;;;1048787;28;20364;-76
2024/03/21 02:02:28;;;;;;;;;;;;;;;;;;1048659;28;20347;-76
2024/03/21 02:02:58;;;;;;;;;;;;;;;;;;1042169;28;19909;-74
2024/03/21 02:03:29;;;;;;;;;;;;;;;;;;1043916;28;19908;-74
2024/03/21 02:03:59;;;;;;;;;;;;;;;;;;1044681;28;19946;-75
2024/03/21 02:04:30;;;;;;;;;;;;;;;;;;1048315;28;19912;-75
2024/03/21 02:05:00;;;;;;;;;;;;;;;;;;1042169;28;19913;-75
2024/03/21 02:05:31;;;;;;;;;;;;;;;;;;1042686;28;19909;-75
2024/03/21 02:06:01;;;;;;;;;;;;;;;;;;1041952;28;20398;-76
2024/03/21 02:06:32;;;;;;;;;;;;;;;;;;1039649;28;19909;-76
2024/03/21 02:07:03;;;;;;;;;;;;;;;;;;1040082;28;19909;-76
2024/03/21 02:07:33;;;;;;;;;;;;;;;;;;1041764;28;19913;-76
2024/03/21 02:08:03;;;;;;;;;;;;;;;;;;1041713;28;19909;-76
2024/03/21 02:08:33;;;;;;;;;;;;;;;;;;1041754;28;19916;-76
2024/03/21 02:09:07;;;;;;;;;;;;;;;;;;1048311;28;19908;-76
2024/03/21 02:09:37;;;;;;;;;;;;;;;;;;1048153;28;19954;-76
2024/03/21 02:10:08;;;;;;;;;;;;;;;;;;1043783;28;20434;-76
2024/03/21 02:10:38;;;;;;;;;;;;;;;;;;1044687;28;19908;-76
2024/03/21 02:11:11;;;;;;;;;;;;;;;;;;1048295;28;19919;-76
2024/03/21 02:11:41;;;;;;;;;;;;;;;;;;1048106;28;19908;-76
2024/03/21 02:12:12;;;;;;;;;;;;;;;;;;1041646;28;19956;-76
2024/03/21 02:12:43;;;;;;;;;;;;;;;;;;1043129;28;19999;-76
2024/03/21 02:13:14;;;;;;;;;;;;;;;;;;1037604;28;19920;-76
2024/03/21 02:13:46;;;;;;;;;;;;;;;;;;1040863;28;19916;-76
2024/03/21 02:14:16;;;;;;;;;;;;;;;;;;1044965;28;19916;-76
2024/03/21 02:14:46;;;;;;;;;;;;;;;;;;1047053;28;19908;-76
2024/03/21 02:15:17;;;;;;;;;;;;;;;;;;1044147;28;19951;-76
2024/03/21 02:15:47;;;;;;;;;;;;;;;;;;1048592;28;19915;-77
2024/03/21 02:16:17;;;;;;;;;;;;;;;;;;1048539;28;19908;-77
2024/03/21 02:16:48;;;;;;;;;;;;;;;;;;1048210;28;19968;-76
2024/03/21 02:17:19;;;;;;;;;;;;;;;;;;1047511;28;19970;-76
2024/03/21 02:17:49;;;;;;;;;;;;;;;;;;1044141;28;20024;-76
2024/03/21 02:18:19;;;;;;;;;;;;;;;;;;1044287;28;20014;-76
2024/03/21 02:18:49;;;;;;;;;;;;;;;;;;1048186;28;19970;-76
2024/03/21 02:19:20;;;;;;;;;;;;;;;;;;1047812;28;19982;-76
2024/03/21 02:19:50;;;;;;;;;;;;;;;;;;1048203;28;20007;-76
2024/03/21 02:20:20;;;;;;;;;;;;;;;;;;1048317;28;19908;-76
2024/03/21 02:20:50;;;;;;;;;;;;;;;;;;1044214;28;19952;-76
2024/03/21 02:22:58;;;;;;;;;;;;;;;;;;1053383;28;19908;-76
2024/03/21 02:23:28;;;;;;;;;;;;;;;;;;1052999;28;20027;-76
2024/03/21 02:23:59;;;;;;;;;;;;;;;;;;1049070;28;19909;-76
2024/03/21 02:24:29;;;;;;;;;;;;;;;;;;1048601;28;19948;-76
2024/03/21 02:25:00;;;;;;;;;;;;;;;;;;1048803;28;19919;-77
2024/03/21 02:25:30;;;;;;;;;;;;;;;;;;1049540;28;19951;-76
2024/03/21 02:26:00;;;;;;;;;;;;;;;;;;1049320;28;19994;-76
2024/03/21 02:26:31;;;;;;;;;;;;;;;;;;1044660;28;19909;-76
2024/03/21 02:27:01;;;;;;;;;;;;;;;;;;1044982;28;19909;-76
2024/03/21 02:27:31;;;;;;;;;;;;;;;;;;1048980;28;20372;-76
2024/03/21 02:28:01;;;;;;;;;;;;;;;;;;1049195;28;20221;-76
2024/03/21 02:28:32;;;;;;;;;;;;;;;;;;1049133;28;20415;-76
2024/03/21 02:29:05;;;;;;;;;;;;;;;;;;1042972;28;20447;-77
2024/03/21 02:29:35;;;;;;;;;;;;;;;;;;1040528;28;20330;-77
2024/03/21 02:30:06;;;;;;;;;;;;;;;;;;1042448;28;19916;-77
2024/03/21 02:30:37;;;;;;;;;;;;;;;;;;1043298;28;19916;-77
2024/03/21 02:31:07;;;;;;;;;;;;;;;;;;1042615;28;20003;-77
2024/03/21 02:31:37;;;;;;;;;;;;;;;;;;1042921;28;20329;-76
2024/03/21 02:32:08;;;;;;;;;;;;;;;;;;1041248;28;19909;-76
2024/03/21 02:32:38;;;;;;;;;;;;;;;;;;1041425;28;19909;-76
2024/03/21 02:33:08;;;;;;;;;;;;;;;;;;1045220;28;19999;-76
2024/03/21 02:33:39;;;;;;;;;;;;;;;;;;1049107;28;20194;-75
2024/03/21 02:34:09;;;;;;;;;;;;;;;;;;1045453;28;19948;-75
2024/03/21 02:34:40;;;;;;;;;;;;;;;;;;1045380;28;19916;-76
2024/03/21 02:35:10;;;;;;;;;;;;;;;;;;1045095;28;20049;-76
2024/03/21 02:35:40;;;;;;;;;;;;;;;;;;1049554;28;19909;-75
2024/03/21 02:36:10;;;;;;;;;;;;;;;;;;1049444;28;19941;-76
2024/03/21 02:36:41;;;;;;;;;;;;;;;;;;1048354;28;20396;-75
2024/03/21 02:37:11;;;;;;;;;;;;;;;;;;1048531;28;19908;-76
2024/03/21 02:37:41;;;;;;;;;;;;;;;;;;1049485;28;19916;-76
2024/03/21 02:38:11;;;;;;;;;;;;;;;;;;1048721;28;19915;-75
2024/03/21 02:38:42;;;;;;;;;;;;;;;;;;1049299;28;19912;-76
2024/03/21 02:39:13;;;;;;;;;;;;;;;;;;1047187;28;20312;-76
2024/03/21 02:39:45;;;;;;;;;;;;;;;;;;1049395;28;20043;-75
2024/03/21 02:40:15;;;;;;;;;;;;;;;;;;1048403;28;19908;-76
2024/03/21 02:40:46;;;;;;;;;;;;;;;;;;1045285;28;19916;-75
2024/03/21 02:41:16;;;;;;;;;;;;;;;;;;1045302;28;19963;-75
2024/03/21 02:41:46;;;;;;;;;;;;;;;;;;1048958;28;20381;-75
2024/03/21 02:42:17;;;;;;;;;;;;;;;;;;1043898;28;19955;-74
2024/03/21 02:42:47;;;;;;;;;;;;;;;;;;1043880;28;20342;-75
2024/03/21 02:43:17;;;;;;;;;;;;;;;;;;1038557;28;19909;-75
2024/03/21 02:43:48;;;;;;;;;;;;;;;;;;1038438;28;19931;-76
2024/03/21 02:44:18;;;;;;;;;;;;;;;;;;1044899;28;19915;-75
2024/03/21 02:44:48;;;;;;;;;;;;;;;;;;1043807;28;20026;-75
2024/03/21 02:45:20;;;;;;;;;;;;;;;;;;1042650;28;19908;-75
2024/03/21 02:45:50;;;;;;;;;;;;;;;;;;1039047;28;19991;-76
2024/03/21 02:46:21;;;;;;;;;;;;;;;;;;1038938;28;19960;-75
2024/03/21 02:46:51;;;;;;;;;;;;;;;;;;1045064;28;19909;-76
2024/03/21 02:47:21;;;;;;;;;;;;;;;;;;1043633;28;19909;-76
2024/03/21 02:47:52;;;;;;;;;;;;;;;;;;1043150;28;19991;-75
2024/03/21 02:48:22;;;;;;;;;;;;;;;;;;1042890;28;19959;-75
2024/03/21 02:48:53;;;;;;;;;;;;;;;;;;1043281;28;19909;-76
2024/03/21 02:49:23;;;;;;;;;;;;;;;;;;1048003;28;20911;-76
2024/03/21 02:49:53;;;;;;;;;;;;;;;;;;1044957;28;20058;-75
2024/03/21 02:50:24;;;;;;;;;;;;;;;;;;1048704;28;19908;-75
2024/03/21 02:50:54;;;;;;;;;;;;;;;;;;1044939;28;20273;-76
2024/03/21 02:51:24;;;;;;;;;;;;;;;;;;1043602;28;20410;-76
2024/03/21 02:51:55;;;;;;;;;;;;;;;;;;1044342;28;19915;-76
2024/03/21 02:52:25;;;;;;;;;;;;;;;;;;1044821;28;19909;-76
2024/03/21 02:52:56;;;;;;;;;;;;;;;;;;1044832;28;20007;-76
2024/03/21 02:53:26;;;;;;;;;;;;;;;;;;1044832;28;19917;-76
2024/03/21 02:53:57;;;;;;;;;;;;;;;;;;1044689;28;19995;-75
2024/03/21 02:54:29;;;;;;;;;;;;;;;;;;1044523;28;19921;-76
2024/03/21 02:55:00;;;;;;;;;;;;;;;;;;1048863;28;19957;-76
2024/03/21 02:55:30;;;;;;;;;;;;;;;;;;1048691;28;19958;-76
2024/03/21 02:56:00;;;;;;;;;;;;;;;;;;1043285;28;19908;-76
2024/03/21 02:56:31;;;;;;;;;;;;;;;;;;1042706;28;19991;-76
2024/03/21 02:57:01;;;;;;;;;;;;;;;;;;1042680;28;20329;-76
2024/03/21 02:57:31;;;;;;;;;;;;;;;;;;1042502;28;19924;-76
2024/03/21 02:58:01;;;;;;;;;;;;;;;;;;1049226;28;19930;-76
2024/03/21 02:58:32;;;;;;;;;;;;;;;;;;1046510;28;19989;-77
2024/03/21 02:59:03;;;;;;;;;;;;;;;;;;1049052;28;19908;-77
2024/03/21 02:59:33;;;;;;;;;;;;;;;;;;1048781;28;19916;-77
2024/03/21 03:00:03;;;;;;;;;;;;;;;;;;1048954;28;20430;-76
2024/03/21 03:00:34;;;;;;;;;;;;;;;;;;1048533;28;20003;-76
2024/03/21 03:01:04;;;;;;;;;;;;;;;;;;1049084;28;19908;-76
2024/03/21 03:01:34;;;;;;;;;;;;;;;;;;1042297;28;19916;-76
2024/03/21 03:02:05;;;;;;;;;;;;;;;;;;1042265;28;20269;-76
2024/03/21 03:02:36;;;;;;;;;;;;;;;;;;1044206;28;19908;-76
2024/03/21 03:03:07;;;;;;;;;;;;;;;;;;1041204;28;19960;-76
2024/03/21 03:03:37;;;;;;;;;;;;;;;;;;1041524;28;19916;-76
2024/03/21 03:04:10;;;;;;;;;;;;;;;;;;1043226;28;19935;-75
2024/03/21 03:04:40;;;;;;;;;;;;;;;;;;1041008;28;19967;-76
2024/03/21 03:05:12;;;;;;;;;;;;;;;;;;1041205;28;20362;-76
2024/03/21 03:05:43;;;;;;;;;;;;;;;;;;1044396;28;19951;-75
2024/03/21 03:06:13;;;;;;;;;;;;;;;;;;1044487;28;20505;-76
2024/03/21 03:06:43;;;;;;;;;;;;;;;;;;1048149;28;20305;-76
2024/03/21 03:07:14;;;;;;;;;;;;;;;;;;1053387;28;20086;-76
2024/03/21 03:07:44;;;;;;;;;;;;;;;;;;1048125;28;19962;-76
2024/03/21 03:08:14;;;;;;;;;;;;;;;;;;1042422;28;20490;-76
2024/03/21 03:08:44;;;;;;;;;;;;;;;;;;1042578;28;19944;-76
2024/03/21 03:09:15;;;;;;;;;;;;;;;;;;1043118;28;20007;-76
2024/03/21 03:09:45;;;;;;;;;;;;;;;;;;1040611;28;19920;-76
2024/03/21 03:10:15;;;;;;;;;;;;;;;;;;1044945;28;19909;-76
2024/03/21 03:10:46;;;;;;;;;;;;;;;;;;1043987;28;19959;-75
2024/03/21 03:11:16;;;;;;;;;;;;;;;;;;1044641;28;19912;-77
2024/03/21 03:11:46;;;;;;;;;;;;;;;;;;1049036;28;19914;-77
2024/03/21 03:12:17;;;;;;;;;;;;;;;;;;1048941;28;19915;-76
2024/03/21 03:12:49;;;;;;;;;;;;;;;;;;1047846;28;20360;-76
2024/03/21 03:13:19;;;;;;;;;;;;;;;;;;1041021;28;19909;-77
2024/03/21 03:13:49;;;;;;;;;;;;;;;;;;1043193;28;20419;-76
2024/03/21 03:14:19;;;;;;;;;;;;;;;;;;1042510;28;19916;-75
2024/03/21 03:14:50;;;;;;;;;;;;;;;;;;1040249;28;19978;-75
2024/03/21 03:15:20;;;;;;;;;;;;;;;;;;1044583;28;19909;-76
2024/03/21 03:15:50;;;;;;;;;;;;;;;;;;1044851;28;19933;-76
2024/03/21 03:16:21;;;;;;;;;;;;;;;;;;1048427;28;19932;-75
2024/03/21 03:16:51;;;;;;;;;;;;;;;;;;1044839;28;19915;-76
2024/03/21 03:17:22;;;;;;;;;;;;;;;;;;1044550;28;20396;-75
2024/03/21 03:17:52;;;;;;;;;;;;;;;;;;1044223;28;20341;-75
2024/03/21 03:18:22;;;;;;;;;;;;;;;;;;1043507;28;19947;-76
2024/03/21 03:18:53;;;;;;;;;;;;;;;;;;1042567;28;19913;-76
2024/03/21 03:19:23;;;;;;;;;;;;;;;;;;1042074;28;19909;-75
2024/03/21 03:19:53;;;;;;;;;;;;;;;;;;1043089;28;19940;-76
2024/03/21 03:20:23;;;;;;;;;;;;;;;;;;1044287;28;20461;-76
2024/03/21 03:20:54;;;;;;;;;;;;;;;;;;1045024;28;19964;-76
2024/03/21 03:21:24;;;;;;;;;;;;;;;;;;1043476;28;20008;-76
2024/03/21 03:21:54;;;;;;;;;;;;;;;;;;1043756;28;20032;-76
2024/03/21 03:22:24;;;;;;;;;;;;;;;;;;1047658;28;19916;-76
2024/03/21 03:22:55;;;;;;;;;;;;;;;;;;1049031;28;19908;-76
2024/03/21 03:23:25;;;;;;;;;;;;;;;;;;1048810;28;20449;-75
2024/03/21 03:23:55;;;;;;;;;;;;;;;;;;1048732;28;19973;-76
2024/03/21 03:24:26;;;;;;;;;;;;;;;;;;1048085;28;19908;-75
2024/03/21 03:24:56;;;;;;;;;;;;;;;;;;1047291;28;20043;-75
2024/03/21 03:25:26;;;;;;;;;;;;;;;;;;1044967;28;20268;-76
2024/03/21 03:25:57;;;;;;;;;;;;;;;;;;1049172;28;20050;-76
2024/03/21 03:26:27;;;;;;;;;;;;;;;;;;1048734;28;19908;-75
2024/03/21 03:26:58;;;;;;;;;;;;;;;;;;1043075;28;19913;-75
2024/03/21 03:27:28;;;;;;;;;;;;;;;;;;1042994;28;19916;-75
2024/03/21 03:27:59;;;;;;;;;;;;;;;;;;1039972;28;20459;-75
2024/03/21 03:28:30;;;;;;;;;;;;;;;;;;1039117;28;19913;-75
2024/03/21 03:29:00;;;;;;;;;;;;;;;;;;1040173;28;19916;-75
2024/03/21 03:29:30;;;;;;;;;;;;;;;;;;1044835;28;20373;-75
2024/03/21 03:30:00;;;;;;;;;;;;;;;;;;1041072;28;20264;-75